Etusivu
METAR-TAF:

METAR-TAF

Lentoasemat :

Kuressaaren lentoasema

Kuressaari, Viro

Leveyspiiri: 58-13-48N, Pituuspiiri: 022-30-34E, korkeus merenpinnasta: 4 m

Tämänhetkinen sää

Tämä raportti tehtiin 1 tunti ja 4 minuuttia sitten, kello 03.50 UTC
tyyntä
Lämpötila 0°C
Kosteus 86%
Ilmanpaine 1007 hPa
Näkyvyys 10 km tai enemmän

METAR: EEKE 260350Z AUTO 00000KT 9999NDV NSC M00/M02 Q1007

Aika: 06:54 (04:54 UTC)

Sääennuste

Tämä raportti tehtiin 13 tuntia ja 54 minuuttia sitten, kello 15.00 UTC
Ennuste voimassa 25. päivästä klo 16 UTC - 25. päivään klo 22 UTC
Tuuli 14 kn pohjoisen/luoteesta
Näkyvyys 10 km tai enemmän
Hajanaisia pilviä 2500 ft:n korkeudessa
Todennäköisyys 40% :
Ajoittain
25. päivästä klo 16 UTC - 25. päivään klo 19 UTC
Tuuli 15 kn luoteesta puuskistuen 25 kn:hen
Hajonneita pilviä 1000 ft:n korkeudessa

TAF: EEKE 251500Z 2516/2522 33014KT 9999 SCT025 PROB40 TEMPO 2516/2519 32015G25KT BKN010

Säähavainnot ja -ennusteet yli 4000 lentoasemalta (METAR- ja TAF-raportit).

Käytössä olevat sääasemat on merkitty karttaan keltaisilla ja punaisilla pisteillä.

Aseta hiiri pisteen päälle nähdäksesi sääaseman nimen.

Klikkaa sitten nähdäksesi säähavainnot ja -ennusteet.

Kartan vaihtaminen: klikkaa mustalla rastilla varustettuja vihreitä pisteitä, niin voit zoomata sisään; viivalla varustettua vihreää pistettä, niin voit zoomata ulos tai vihreitä nuolia, niin pääset viereisille kartoille.


METAR-TAF: